sensor_id;sensor_type;location;lat;lon;timestamp;pressure;altitude;pressure_sealevel;temperature;humidity
57442;BME280;43284;47.042;15.498;2023-02-23T00:00:27;96882.09;;;2.47;92.38
57442;BME280;43284;47.042;15.498;2023-02-23T00:02:55;96881.25;;;2.46;92.29
57442;BME280;43284;47.042;15.498;2023-02-23T00:05:24;96879.69;;;2.39;91.81
57442;BME280;43284;47.042;15.498;2023-02-23T00:07:51;96880.53;;;2.40;91.93
57442;BME280;43284;47.042;15.498;2023-02-23T00:10:17;96879.69;;;2.39;92.24
57442;BME280;43284;47.042;15.498;2023-02-23T00:12:45;96884.00;;;2.39;92.18
57442;BME280;43284;47.042;15.498;2023-02-23T00:15:11;96882.38;;;2.35;92.18
57442;BME280;43284;47.042;15.498;2023-02-23T00:17:37;96879.81;;;2.33;92.53
57442;BME280;43284;47.042;15.498;2023-02-23T00:20:07;96887.66;;;2.29;92.31
57442;BME280;43284;47.042;15.498;2023-02-23T00:22:39;96883.41;;;2.26;92.70
57442;BME280;43284;47.042;15.498;2023-02-23T00:25:08;96883.44;;;2.24;92.64
57442;BME280;43284;47.042;15.498;2023-02-23T00:27:37;96880.84;;;2.24;92.60
57442;BME280;43284;47.042;15.498;2023-02-23T00:30:15;96886.03;;;2.23;92.45
57442;BME280;43284;47.042;15.498;2023-02-23T00:32:43;96880.91;;;2.21;92.65
57442;BME280;43284;47.042;15.498;2023-02-23T00:35:09;96889.59;;;2.17;92.56
57442;BME280;43284;47.042;15.498;2023-02-23T00:37:48;96884.53;;;2.13;93.01
57442;BME280;43284;47.042;15.498;2023-02-23T00:40:15;96886.28;;;2.12;92.60
57442;BME280;43284;47.042;15.498;2023-02-23T00:42:45;96882.06;;;2.06;92.82
57442;BME280;43284;47.042;15.498;2023-02-23T00:45:14;96880.41;;;2.02;92.89
57442;BME280;43284;47.042;15.498;2023-02-23T00:47:41;96885.56;;;2.02;93.02
57442;BME280;43284;47.042;15.498;2023-02-23T00:50:10;96884.72;;;2.02;93.46
57442;BME280;43284;47.042;15.498;2023-02-23T00:52:41;96887.34;;;1.99;93.62
57442;BME280;43284;47.042;15.498;2023-02-23T00:55:09;96885.69;;;1.96;93.69
57442;BME280;43284;47.042;15.498;2023-02-23T00:57:35;96886.59;;;1.94;93.72
57442;BME280;43284;47.042;15.498;2023-02-23T01:00:03;96890.09;;;1.91;93.65
57442;BME280;43284;47.042;15.498;2023-02-23T01:02:37;96889.19;;;1.92;93.43
57442;BME280;43284;47.042;15.498;2023-02-23T01:05:03;96887.50;;;1.91;93.52
57442;BME280;43284;47.042;15.498;2023-02-23T01:07:29;96893.53;;;1.90;93.81
57442;BME280;43284;47.042;15.498;2023-02-23T01:09:54;96895.34;;;1.87;93.70
57442;BME280;43284;47.042;15.498;2023-02-23T01:12:20;96893.66;;;1.84;93.71
57442;BME280;43284;47.042;15.498;2023-02-23T01:14:46;96898.88;;;1.81;93.53
57442;BME280;43284;47.042;15.498;2023-02-23T01:17:12;96892.03;;;1.80;93.62
57442;BME280;43284;47.042;15.498;2023-02-23T01:19:37;96894.59;;;1.80;93.69
57442;BME280;43284;47.042;15.498;2023-02-23T01:22:03;96895.56;;;1.73;93.41
57442;BME280;43284;47.042;15.498;2023-02-23T01:24:29;96897.38;;;1.68;93.34
57442;BME280;43284;47.042;15.498;2023-02-23T01:26:55;96894.81;;;1.68;93.46
57442;BME280;43284;47.042;15.498;2023-02-23T01:29:21;96896.56;;;1.65;93.43
57442;BME280;43284;47.042;15.498;2023-02-23T01:31:48;96896.56;;;1.65;93.85
57442;BME280;43284;47.042;15.498;2023-02-23T01:34:15;96888.94;;;1.59;93.56
57442;BME280;43284;47.042;15.498;2023-02-23T01:36:42;96879.44;;;1.61;93.91
57442;BME280;43284;47.042;15.498;2023-02-23T01:39:15;96884.56;;;1.64;94.44
57442;BME280;43284;47.042;15.498;2023-02-23T01:41:41;96892.31;;;1.63;94.69
57442;BME280;43284;47.042;15.498;2023-02-23T01:46:43;96886.41;;;1.58;94.90
57442;BME280;43284;47.042;15.498;2023-02-23T01:49:14;96880.38;;;1.59;95.16
57442;BME280;43284;47.042;15.498;2023-02-23T01:51:54;96880.38;;;1.59;94.92
57442;BME280;43284;47.042;15.498;2023-02-23T01:54:35;96882.13;;;1.57;94.87
57442;BME280;43284;47.042;15.498;2023-02-23T01:57:03;96879.59;;;1.55;95.57
57442;BME280;43284;47.042;15.498;2023-02-23T01:59:46;96878.72;;;1.55;95.67
57442;BME280;43284;47.042;15.498;2023-02-23T02:02:15;96877.94;;;1.50;95.63
57442;BME280;43284;47.042;15.498;2023-02-23T02:04:43;96873.72;;;1.46;95.38
57442;BME280;43284;47.042;15.498;2023-02-23T02:07:22;96873.78;;;1.42;95.63
57442;BME280;43284;47.042;15.498;2023-02-23T02:09:52;96876.38;;;1.41;95.30
57442;BME280;43284;47.042;15.498;2023-02-23T02:12:42;96876.44;;;1.38;95.49
57442;BME280;43284;47.042;15.498;2023-02-23T02:15:09;96872.25;;;1.32;95.50
57442;BME280;43284;47.042;15.498;2023-02-23T02:23:49;96875.00;;;1.21;95.26
57442;BME280;43284;47.042;15.498;2023-02-23T02:26:48;96869.84;;;1.21;95.15
57442;BME280;43284;47.042;15.498;2023-02-23T02:35:18;96861.44;;;1.12;95.02
57442;BME280;43284;47.042;15.498;2023-02-23T02:41:05;96872.50;;;1.15;95.71
57442;BME280;43284;47.042;15.498;2023-02-23T02:43:55;96866.53;;;1.13;95.83
57442;BME280;43284;47.042;15.498;2023-02-23T02:46:26;96870.03;;;1.09;95.46
57442;BME280;43284;47.042;15.498;2023-02-23T02:48:58;96869.25;;;1.06;95.25
57442;BME280;43284;47.042;15.498;2023-02-23T02:51:53;96866.69;;;1.04;95.15
57442;BME280;43284;47.042;15.498;2023-02-23T02:54:25;96868.41;;;1.03;94.99
57442;BME280;43284;47.042;15.498;2023-02-23T02:56:57;96868.44;;;1.00;94.97
57442;BME280;43284;47.042;15.498;2023-02-23T02:59:25;96865.06;;;0.98;95.25
57442;BME280;43284;47.042;15.498;2023-02-23T03:02:18;96859.03;;;0.99;95.50
57442;BME280;43284;47.042;15.498;2023-02-23T03:05:15;96857.31;;;1.00;95.46
57442;BME280;43284;47.042;15.498;2023-02-23T03:08:23;96863.50;;;0.90;94.32
57442;BME280;43284;47.042;15.498;2023-02-23T03:11:13;96870.47;;;0.81;94.15
57442;BME280;43284;47.042;15.498;2023-02-23T03:19:57;96874.88;;;0.72;94.86
57442;BME280;43284;47.042;15.498;2023-02-23T03:26:20;96881.88;;;0.62;94.41
57442;BME280;43284;47.042;15.498;2023-02-23T03:29:31;96884.47;;;0.60;94.96
57442;BME280;43284;47.042;15.498;2023-02-23T03:35:18;96893.03;;;0.61;95.70
57442;BME280;43284;47.042;15.498;2023-02-23T03:38:13;96890.56;;;0.55;94.65
57442;BME280;43284;47.042;15.498;2023-02-23T03:41:00;96885.47;;;0.50;94.68
57442;BME280;43284;47.042;15.498;2023-02-23T03:43:54;96886.28;;;0.54;95.55
57442;BME280;43284;47.042;15.498;2023-02-23T03:46:40;96882.72;;;0.66;96.20
57442;BME280;43284;47.042;15.498;2023-02-23T03:49:28;96885.22;;;0.67;96.45
57442;BME280;43284;47.042;15.498;2023-02-23T03:52:19;96887.81;;;0.67;96.46
57442;BME280;43284;47.042;15.498;2023-02-23T03:55:13;96900.16;;;0.40;95.33
57442;BME280;43284;47.042;15.498;2023-02-23T03:58:01;96899.28;;;0.43;95.96
57442;BME280;43284;47.042;15.498;2023-02-23T04:00:50;96906.13;;;0.44;96.07
57442;BME280;43284;47.042;15.498;2023-02-23T04:03:39;96903.56;;;0.43;96.24
57442;BME280;43284;47.042;15.498;2023-02-23T04:06:27;96905.31;;;0.39;95.44
57442;BME280;43284;47.042;15.498;2023-02-23T04:09:14;96901.13;;;0.33;95.71
57442;BME280;43284;47.042;15.498;2023-02-23T04:17:27;96898.56;;;0.33;96.58
57442;BME280;43284;47.042;15.498;2023-02-23T04:19:54;96899.41;;;0.32;96.89
57442;BME280;43284;47.042;15.498;2023-02-23T04:22:21;96893.44;;;0.30;96.69
57442;BME280;43284;47.042;15.498;2023-02-23T04:24:47;96890.84;;;0.30;96.86
57442;BME280;43284;47.042;15.498;2023-02-23T04:27:13;96896.06;;;0.27;96.78
57442;BME280;43284;47.042;15.498;2023-02-23T04:29:39;96899.53;;;0.22;95.88
57442;BME280;43284;47.042;15.498;2023-02-23T04:32:06;96896.13;;;0.21;96.43
57442;BME280;43284;47.042;15.498;2023-02-23T04:34:32;96894.25;;;0.34;96.78
57442;BME280;43284;47.042;15.498;2023-02-23T04:36:58;96894.25;;;0.34;97.12
57442;BME280;43284;47.042;15.498;2023-02-23T04:39:24;96890.00;;;0.31;97.09
57442;BME280;43284;47.042;15.498;2023-02-23T04:41:49;96900.34;;;0.25;96.22
57442;BME280;43284;47.042;15.498;2023-02-23T04:44:16;96898.63;;;0.27;96.77
57442;BME280;43284;47.042;15.498;2023-02-23T04:46:42;96902.09;;;0.25;96.81
57442;BME280;43284;47.042;15.498;2023-02-23T04:49:08;96899.59;;;0.18;96.36
57442;BME280;43284;47.042;15.498;2023-02-23T04:51:35;96900.44;;;0.17;96.99
57442;BME280;43284;47.042;15.498;2023-02-23T04:54:03;96908.97;;;0.21;97.52
57442;BME280;43284;47.042;15.498;2023-02-23T04:56:29;96899.53;;;0.23;97.57
57442;BME280;43284;47.042;15.498;2023-02-23T04:58:55;96906.34;;;0.26;97.72
57442;BME280;43284;47.042;15.498;2023-02-23T05:01:20;96902.09;;;0.23;97.43
57442;BME280;43284;47.042;15.498;2023-02-23T05:03:47;96913.28;;;0.20;96.93
57442;BME280;43284;47.042;15.498;2023-02-23T05:06:17;96897.84;;;0.19;97.07
57442;BME280;43284;47.042;15.498;2023-02-23T05:08:42;96910.69;;;0.22;97.10
57442;BME280;43284;47.042;15.498;2023-02-23T05:11:09;96910.69;;;0.22;97.53
57442;BME280;43284;47.042;15.498;2023-02-23T05:13:35;96913.28;;;0.20;97.22
57442;BME280;43284;47.042;15.498;2023-02-23T05:16:00;96908.06;;;0.24;97.17
57442;BME280;43284;47.042;15.498;2023-02-23T05:18:26;96911.47;;;0.29;97.00
57442;BME280;43284;47.042;15.498;2023-02-23T05:20:54;96908.03;;;0.28;97.09
57442;BME280;43284;47.042;15.498;2023-02-23T05:23:25;96906.38;;;0.24;96.93
57442;BME280;43284;47.042;15.498;2023-02-23T05:25:51;96908.13;;;0.20;97.09
57442;BME280;43284;47.042;15.498;2023-02-23T05:28:16;96913.22;;;0.24;97.52
57442;BME280;43284;47.042;15.498;2023-02-23T05:30:42;96911.53;;;0.21;97.45
57442;BME280;43284;47.042;15.498;2023-02-23T05:33:08;96912.44;;;0.20;97.36
57442;BME280;43284;47.042;15.498;2023-02-23T05:35:33;96923.63;;;0.13;96.69
57442;BME280;43284;47.042;15.498;2023-02-23T05:38:00;96920.19;;;0.14;97.28
57442;BME280;43284;47.042;15.498;2023-02-23T05:40:25;96919.34;;;0.13;96.88
57442;BME280;43284;47.042;15.498;2023-02-23T05:42:57;96925.28;;;0.20;97.47
57442;BME280;43284;47.042;15.498;2023-02-23T05:45:23;96921.81;;;0.24;97.62
57442;BME280;43284;47.042;15.498;2023-02-23T05:47:49;96922.66;;;0.23;97.35
57442;BME280;43284;47.042;15.498;2023-02-23T05:50:16;96918.41;;;0.20;97.02
57442;BME280;43284;47.042;15.498;2023-02-23T05:52:43;96918.41;;;0.20;97.40
57442;BME280;43284;47.042;15.498;2023-02-23T05:55:10;96918.47;;;0.16;97.00
57442;BME280;43284;47.042;15.498;2023-02-23T05:57:36;96915.91;;;0.14;97.12
57442;BME280;43284;47.042;15.498;2023-02-23T06:00:04;96923.63;;;0.14;97.52
57442;BME280;43284;47.042;15.498;2023-02-23T06:02:30;96916.03;;;0.04;96.70
57442;BME280;43284;47.042;15.498;2023-02-23T06:04:56;96912.59;;;0.05;97.30
57442;BME280;43284;47.042;15.498;2023-02-23T06:07:22;96921.94;;;0.09;97.96
57442;BME280;43284;47.042;15.498;2023-02-23T06:09:47;96930.53;;;0.08;97.88
57442;BME280;43284;47.042;15.498;2023-02-23T06:12:13;96929.66;;;0.09;98.18
57442;BME280;43284;47.042;15.498;2023-02-23T06:14:38;96934.72;;;0.18;98.83
57442;BME280;43284;47.042;15.498;2023-02-23T06:17:05;96938.91;;;0.24;99.57
57442;BME280;43284;47.042;15.498;2023-02-23T06:19:34;96940.56;;;0.31;99.38
57442;BME280;43284;47.042;15.498;2023-02-23T06:21:59;96939.56;;;0.44;99.46
57442;BME280;43284;47.042;15.498;2023-02-23T06:24:25;96949.03;;;0.40;99.22
57442;BME280;43284;47.042;15.498;2023-02-23T06:26:51;96951.63;;;0.37;98.82
57442;BME280;43284;47.042;15.498;2023-02-23T06:29:16;96948.22;;;0.35;98.89
57442;BME280;43284;47.042;15.498;2023-02-23T06:31:42;96951.66;;;0.36;99.21
57442;BME280;43284;47.042;15.498;2023-02-23T06:34:08;96966.13;;;0.41;98.90
57442;BME280;43284;47.042;15.498;2023-02-23T06:36:35;96963.59;;;0.40;98.90
57442;BME280;43284;47.042;15.498;2023-02-23T06:39:02;96971.31;;;0.40;99.10
57442;BME280;43284;47.042;15.498;2023-02-23T06:41:28;96973.84;;;0.41;99.22
57442;BME280;43284;47.042;15.498;2023-02-23T06:43:54;96982.44;;;0.40;98.93
57442;BME280;43284;47.042;15.498;2023-02-23T06:46:20;96990.16;;;0.39;99.16
57442;BME280;43284;47.042;15.498;2023-02-23T06:48:46;97001.28;;;0.41;99.21
57442;BME280;43284;47.042;15.498;2023-02-23T06:51:11;96997.88;;;0.42;99.38
57442;BME280;43284;47.042;15.498;2023-02-23T06:53:37;97004.69;;;0.46;99.19
57442;BME280;43284;47.042;15.498;2023-02-23T06:56:03;97007.16;;;0.52;99.51
57442;BME280;43284;47.042;15.498;2023-02-23T06:58:29;97009.69;;;0.57;99.63
57442;BME280;43284;47.042;15.498;2023-02-23T07:00:58;97015.66;;;0.59;99.51
57442;BME280;43284;47.042;15.498;2023-02-23T07:03:24;97014.63;;;0.75;100.00
57442;BME280;43284;47.042;15.498;2023-02-23T07:05:51;97003.38;;;0.82;100.00
57442;BME280;43284;47.042;15.498;2023-02-23T07:08:17;97016.22;;;0.86;100.00
57442;BME280;43284;47.042;15.498;2023-02-23T07:10:44;97019.63;;;0.88;100.00
57442;BME280;43284;47.042;15.498;2023-02-23T07:13:10;97018.66;;;0.95;100.00
57442;BME280;43284;47.042;15.498;2023-02-23T07:15:39;97018.47;;;1.07;100.00
57442;BME280;43284;47.042;15.498;2023-02-23T07:18:06;97017.56;;;1.13;100.00
57442;BME280;43284;47.042;15.498;2023-02-23T07:20:31;97021.78;;;1.18;100.00
57442;BME280;43284;47.042;15.498;2023-02-23T07:22:58;97026.75;;;1.31;100.00
57442;BME280;43284;47.042;15.498;2023-02-23T07:25:29;97024.09;;;1.35;100.00
57442;BME280;43284;47.042;15.498;2023-02-23T07:27:55;97022.22;;;1.48;100.00
57442;BME280;43284;47.042;15.498;2023-02-23T07:30:21;97024.69;;;1.54;100.00
57442;BME280;43284;47.042;15.498;2023-02-23T07:32:51;97024.47;;;1.70;100.00
57442;BME280;43284;47.042;15.498;2023-02-23T07:35:17;97020.81;;;1.81;100.00
57442;BME280;43284;47.042;15.498;2023-02-23T07:37:42;97015.56;;;1.88;100.00
57442;BME280;43284;47.042;15.498;2023-02-23T07:40:09;97021.13;;;2.14;100.00
57442;BME280;43284;47.042;15.498;2023-02-23T07:42:35;97016.59;;;2.29;100.00
57442;BME280;43284;47.042;15.498;2023-02-23T07:45:00;97019.19;;;2.27;100.00
57442;BME280;43284;47.042;15.498;2023-02-23T07:47:26;97019.00;;;2.38;100.00
57442;BME280;43284;47.042;15.498;2023-02-23T07:49:59;97016.84;;;2.61;100.00
57442;BME280;43284;47.042;15.498;2023-02-23T07:52:28;97020.16;;;2.66;100.00
57442;BME280;43284;47.042;15.498;2023-02-23T07:54:53;97021.00;;;2.68;100.00
57442;BME280;43284;47.042;15.498;2023-02-23T07:57:19;97025.09;;;2.80;100.00
57442;BME280;43284;47.042;15.498;2023-02-23T07:59:48;97026.63;;;2.89;100.00
57442;BME280;43284;47.042;15.498;2023-02-23T08:02:14;97021.25;;;3.00;100.00
57442;BME280;43284;47.042;15.498;2023-02-23T08:04:41;97027.13;;;3.06;100.00
57442;BME280;43284;47.042;15.498;2023-02-23T08:07:08;97025.91;;;3.23;100.00
57442;BME280;43284;47.042;15.498;2023-02-23T08:09:34;97019.44;;;3.44;100.00
57442;BME280;43284;47.042;15.498;2023-02-23T08:12:00;97018.50;;;3.46;100.00
57442;BME280;43284;47.042;15.498;2023-02-23T08:14:27;97026.13;;;3.53;100.00
57442;BME280;43284;47.042;15.498;2023-02-23T08:16:52;97018.19;;;3.60;100.00
57442;BME280;43284;47.042;15.498;2023-02-23T08:19:18;97012.84;;;3.68;100.00
57442;BME280;43284;47.042;15.498;2023-02-23T08:21:50;97007.34;;;3.80;100.00
57442;BME280;43284;47.042;15.498;2023-02-23T08:24:16;97008.06;;;3.87;100.00
57442;BME280;43284;47.042;15.498;2023-02-23T08:26:42;97005.81;;;4.09;100.00
57442;BME280;43284;47.042;15.498;2023-02-23T08:29:08;97006.97;;;4.30;100.00
57442;BME280;43284;47.042;15.498;2023-02-23T08:31:34;96996.97;;;4.50;100.00
57442;BME280;43284;47.042;15.498;2023-02-23T08:34:00;97002.47;;;4.69;100.00
57442;BME280;43284;47.042;15.498;2023-02-23T08:36:26;97004.91;;;4.75;100.00
57442;BME280;43284;47.042;15.498;2023-02-23T08:38:52;97001.22;;;4.83;100.00
57442;BME280;43284;47.042;15.498;2023-02-23T08:41:21;97000.06;;;4.94;100.00
57442;BME280;43284;47.042;15.498;2023-02-23T08:43:47;97002.50;;;4.99;99.45
57442;BME280;43284;47.042;15.498;2023-02-23T08:46:13;97005.50;;;5.15;97.75
57442;BME280;43284;47.042;15.498;2023-02-23T08:48:41;97003.75;;;5.15;96.62
57442;BME280;43284;47.042;15.498;2023-02-23T08:51:07;97001.81;;;5.22;95.09
57442;BME280;43284;47.042;15.498;2023-02-23T08:53:33;96998.31;;;5.25;94.05
57442;BME280;43284;47.042;15.498;2023-02-23T08:56:01;96997.22;;;5.32;93.94
57442;BME280;43284;47.042;15.498;2023-02-23T08:58:28;96992.59;;;5.42;91.96
57442;BME280;43284;47.042;15.498;2023-02-23T09:00:54;97000.84;;;5.54;91.32
57442;BME280;43284;47.042;15.498;2023-02-23T09:03:21;97006.72;;;5.60;90.59
57442;BME280;43284;47.042;15.498;2023-02-23T09:05:48;97006.53;;;5.66;89.42
57442;BME280;43284;47.042;15.498;2023-02-23T09:08:14;97011.63;;;5.69;88.08
57442;BME280;43284;47.042;15.498;2023-02-23T09:10:41;97016.72;;;5.72;87.41
57442;BME280;43284;47.042;15.498;2023-02-23T09:13:09;97009.56;;;5.80;86.83
57442;BME280;43284;47.042;15.498;2023-02-23T09:15:36;97011.19;;;5.83;86.20
57442;BME280;43284;47.042;15.498;2023-02-23T09:18:03;97012.69;;;5.90;86.18
57442;BME280;43284;47.042;15.498;2023-02-23T09:20:28;97021.34;;;5.90;84.68
57442;BME280;43284;47.042;15.498;2023-02-23T09:22:54;97013.59;;;5.89;84.04
57442;BME280;43284;47.042;15.498;2023-02-23T09:25:20;97014.28;;;5.95;84.91
57442;BME280;43284;47.042;15.498;2023-02-23T09:27:51;97014.53;;;5.86;83.64
57442;BME280;43284;47.042;15.498;2023-02-23T09:30:19;97018.06;;;5.84;84.46
57442;BME280;43284;47.042;15.498;2023-02-23T09:32:49;97025.56;;;5.93;84.90
57442;BME280;43284;47.042;15.498;2023-02-23T09:35:16;97016.75;;;5.98;84.62
57442;BME280;43284;47.042;15.498;2023-02-23T09:37:47;97021.78;;;6.03;84.37
57442;BME280;43284;47.042;15.498;2023-02-23T09:40:16;97016.81;;;5.97;83.24
57442;BME280;43284;47.042;15.498;2023-02-23T09:46:19;97025.34;;;6.01;82.50
57442;BME280;43284;47.042;15.498;2023-02-23T09:48:27;97020.78;;;6.07;82.91
57442;BME280;43284;47.042;15.498;2023-02-23T09:50:55;97023.38;;;6.07;82.21
57442;BME280;43284;47.042;15.498;2023-02-23T09:56:45;97020.59;;;6.13;82.12
57442;BME280;43284;47.042;15.498;2023-02-23T09:59:18;97024.78;;;6.17;81.72
57442;BME280;43284;47.042;15.498;2023-02-23T10:04:27;97021.28;;;6.18;81.80
57442;BME280;43284;47.042;15.498;2023-02-23T10:15:13;97018.81;;;6.40;82.39
57442;BME280;43284;47.042;15.498;2023-02-23T10:20:26;97020.25;;;6.49;82.94
57442;BME280;43284;47.042;15.498;2023-02-23T10:22:56;97013.13;;;6.56;82.80
57442;BME280;43284;47.042;15.498;2023-02-23T10:25:30;97012.06;;;6.60;81.56
57442;BME280;43284;47.042;15.498;2023-02-23T10:28:00;97010.19;;;6.65;81.83
57442;BME280;43284;47.042;15.498;2023-02-23T10:30:30;97009.22;;;6.68;80.90
57442;BME280;43284;47.042;15.498;2023-02-23T10:35:47;97013.03;;;6.83;81.39
57442;BME280;43284;47.042;15.498;2023-02-23T10:38:17;97020.44;;;6.93;81.06
57442;BME280;43284;47.042;15.498;2023-02-23T10:40:53;97015.06;;;6.98;81.48
57442;BME280;43284;47.042;15.498;2023-02-23T10:43:20;97006.97;;;7.06;81.38
57442;BME280;43284;47.042;15.498;2023-02-23T10:45:50;97011.16;;;7.10;80.31
57442;BME280;43284;47.042;15.498;2023-02-23T10:48:21;97009.53;;;7.07;79.52
57442;BME280;43284;47.042;15.498;2023-02-23T10:50:49;96997.16;;;7.14;80.62
57442;BME280;43284;47.042;15.498;2023-02-23T10:55:46;96999.53;;;7.20;79.75
57442;BME280;43284;47.042;15.498;2023-02-23T10:58:16;96992.94;;;7.33;79.71
57442;BME280;43284;47.042;15.498;2023-02-23T11:00:57;96984.84;;;7.41;78.84
57442;BME280;43284;47.042;15.498;2023-02-23T11:05:54;96974.75;;;7.55;78.36
57442;BME280;43284;47.042;15.498;2023-02-23T11:08:24;96978.78;;;7.62;78.14
57442;BME280;43284;47.042;15.498;2023-02-23T11:10:59;96974.09;;;7.72;78.44
57442;BME280;43284;47.042;15.498;2023-02-23T11:13:48;96971.16;;;7.80;79.16
57442;BME280;43284;47.042;15.498;2023-02-23T11:18:42;96967.81;;;7.98;78.63
57442;BME280;43284;47.042;15.498;2023-02-23T11:21:20;96956.97;;;8.09;78.03
57442;BME280;43284;47.042;15.498;2023-02-23T11:23:49;96955.59;;;8.21;78.39
57442;BME280;43284;47.042;15.498;2023-02-23T11:26:31;96951.56;;;8.34;78.30
57442;BME280;43284;47.042;15.498;2023-02-23T11:29:03;96950.19;;;8.46;78.00
57442;BME280;43284;47.042;15.498;2023-02-23T11:31:36;96946.44;;;8.53;75.43
57442;BME280;43284;47.042;15.498;2023-02-23T11:34:04;96940.75;;;8.64;76.24
57442;BME280;43284;47.042;15.498;2023-02-23T11:36:35;96930.75;;;8.74;75.71
57442;BME280;43284;47.042;15.498;2023-02-23T11:39:17;96925.06;;;8.84;74.59
57442;BME280;43284;47.042;15.498;2023-02-23T11:41:44;96921.41;;;8.89;74.62
57442;BME280;43284;47.042;15.498;2023-02-23T11:44:36;96926.41;;;8.93;74.34
57442;BME280;43284;47.042;15.498;2023-02-23T11:47:02;96923.22;;;9.05;75.03
57442;BME280;43284;47.042;15.498;2023-02-23T11:49:32;96919.34;;;9.14;74.18
57442;BME280;43284;47.042;15.498;2023-02-23T11:52:02;96917.16;;;9.24;73.20
57442;BME280;43284;47.042;15.498;2023-02-23T11:54:32;96917.75;;;9.29;72.02
57442;BME280;43284;47.042;15.498;2023-02-23T11:57:00;96918.25;;;9.37;71.62
57442;BME280;43284;47.042;15.498;2023-02-23T11:59:47;96913.47;;;9.47;71.16
57442;BME280;43284;47.042;15.498;2023-02-23T12:02:29;96915.75;;;9.53;72.05
57442;BME280;43284;47.042;15.498;2023-02-23T12:07:38;96909.78;;;9.68;71.37
57442;BME280;43284;47.042;15.498;2023-02-23T12:10:24;96913.78;;;9.76;70.61
57442;BME280;43284;47.042;15.498;2023-02-23T12:16:08;96908.66;;;9.74;70.72
57442;BME280;43284;47.042;15.498;2023-02-23T12:21:20;96904.81;;;9.81;70.49
57442;BME280;43284;47.042;15.498;2023-02-23T12:23:52;96902.34;;;9.96;69.59
57442;BME280;43284;47.042;15.498;2023-02-23T12:26:22;96896.44;;;9.92;71.15
57442;BME280;43284;47.042;15.498;2023-02-23T12:31:42;96900.66;;;9.77;70.89
57442;BME280;43284;47.042;15.498;2023-02-23T12:37:36;96898.03;;;9.77;71.00
57442;BME280;43284;47.042;15.498;2023-02-23T12:40:13;96894.47;;;9.80;70.54
57442;BME280;43284;47.042;15.498;2023-02-23T12:46:13;96887.28;;;9.83;70.97
57442;BME280;43284;47.042;15.498;2023-02-23T12:48:45;96881.63;;;9.75;70.66
57442;BME280;43284;47.042;15.498;2023-02-23T12:51:23;96887.75;;;9.74;71.15
57442;BME280;43284;47.042;15.498;2023-02-23T12:53:50;96886.00;;;9.75;70.96
57442;BME280;43284;47.042;15.498;2023-02-23T12:56:31;96876.47;;;9.74;71.45
57442;BME280;43284;47.042;15.498;2023-02-23T12:59:05;96886.69;;;9.61;71.37
57442;BME280;43284;47.042;15.498;2023-02-23T13:07:43;96875.94;;;9.67;70.81
57442;BME280;43284;47.042;15.498;2023-02-23T13:16:17;96882.53;;;9.57;71.62
57442;BME280;43284;47.042;15.498;2023-02-23T13:24:32;96871.53;;;9.50;71.99
57442;BME280;43284;47.042;15.498;2023-02-23T13:27:13;96875.88;;;9.51;71.75
57442;BME280;43284;47.042;15.498;2023-02-23T13:29:50;96879.91;;;9.57;72.02
57442;BME280;43284;47.042;15.498;2023-02-23T13:32:22;96876.59;;;9.53;72.19
57442;BME280;43284;47.042;15.498;2023-02-23T13:35:14;96876.06;;;9.46;72.14
57442;BME280;43284;47.042;15.498;2023-02-23T13:37:44;96876.22;;;9.43;72.41
57442;BME280;43284;47.042;15.498;2023-02-23T13:40:30;96883.13;;;9.44;72.58
57442;BME280;43284;47.042;15.498;2023-02-23T13:51:42;96884.22;;;9.40;71.42
57442;BME280;43284;47.042;15.498;2023-02-23T13:56:43;96879.97;;;9.38;69.65
57442;BME280;43284;47.042;15.498;2023-02-23T13:59:40;96883.66;;;9.34;69.99
57442;BME280;43284;47.042;15.498;2023-02-23T14:02:33;96889.56;;;9.37;70.41
57442;BME280;43284;47.042;15.498;2023-02-23T14:07:52;96886.94;;;9.37;69.80
57442;BME280;43284;47.042;15.498;2023-02-23T14:10:23;96890.63;;;9.33;70.08
57442;BME280;43284;47.042;15.498;2023-02-23T14:15:48;96893.22;;;9.33;71.34
57442;BME280;43284;47.042;15.498;2023-02-23T14:20:55;96885.28;;;9.36;70.91
57442;BME280;43284;47.042;15.498;2023-02-23T14:26:08;96883.78;;;9.31;70.95
57442;BME280;43284;47.042;15.498;2023-02-23T14:28:36;96881.25;;;9.29;71.55
57442;BME280;43284;47.042;15.498;2023-02-23T14:41:28;96876.19;;;9.26;71.30
57442;BME280;43284;47.042;15.498;2023-02-23T14:43:58;96878.03;;;9.24;71.92
57442;BME280;43284;47.042;15.498;2023-02-23T14:46:27;96871.19;;;9.21;72.21
57442;BME280;43284;47.042;15.498;2023-02-23T14:49:06;96873.97;;;9.18;72.50
57442;BME280;43284;47.042;15.498;2023-02-23T14:51:44;96874.09;;;9.15;72.62
57442;BME280;43284;47.042;15.498;2023-02-23T14:54:28;96874.31;;;9.11;72.68
57442;BME280;43284;47.042;15.498;2023-02-23T14:56:56;96872.63;;;9.10;72.74
57442;BME280;43284;47.042;15.498;2023-02-23T14:59:26;96876.31;;;9.05;72.89
57442;BME280;43284;47.042;15.498;2023-02-23T15:01:53;96872.91;;;9.03;72.71
57442;BME280;43284;47.042;15.498;2023-02-23T15:04:24;96875.59;;;9.02;72.83
57442;BME280;43284;47.042;15.498;2023-02-23T15:06:57;96881.81;;;8.99;73.24
57442;BME280;43284;47.042;15.498;2023-02-23T15:12:04;96874.09;;;8.96;74.14
57442;BME280;43284;47.042;15.498;2023-02-23T15:14:35;96881.16;;;8.94;74.11
57442;BME280;43284;47.042;15.498;2023-02-23T15:17:02;96875.94;;;8.94;74.43
57442;BME280;43284;47.042;15.498;2023-02-23T15:19:33;96880.25;;;8.95;74.46
57442;BME280;43284;47.042;15.498;2023-02-23T15:22:02;96872.59;;;8.92;74.09
57442;BME280;43284;47.042;15.498;2023-02-23T15:24:40;96877.78;;;8.92;73.66
57442;BME280;43284;47.042;15.498;2023-02-23T15:27:27;96871.72;;;8.92;73.94
57442;BME280;43284;47.042;15.498;2023-02-23T15:29:53;96872.66;;;8.91;74.48
57442;BME280;43284;47.042;15.498;2023-02-23T15:32:22;96872.88;;;8.86;74.67
57442;BME280;43284;47.042;15.498;2023-02-23T15:34:50;96873.69;;;8.86;74.35
57442;BME280;43284;47.042;15.498;2023-02-23T15:37:33;96869.31;;;8.87;74.66